This is the latest recevied weather packets stored in our database for station/object W3JGB. If no packets are shown the sender has not sent any weather packets the latest 10 day(s).
| Time | Temp. | Humidity | Pressure | Rain* | Wind** | Luminosity | Snow |
|---|---|---|---|---|---|---|---|
| 1778181651 | 16.67° C | 38% | 1008 hPa | 0 mm | - | 174 W/m² | - |
| 1778181346 | 17.22° C | 38% | 1008.2 hPa | 0 mm | - | 790 W/m² | - |
| 1778181044 | 17.22° C | 37% | 1008.6 hPa | 0 mm | - | 546 W/m² | - |
| 1778180741 | 17.22° C | 40% | 1008.6 hPa | 0 mm | - | 235 W/m² | - |
| 1778180439 | 17.22° C | 38% | 1008.6 hPa | 0 mm | - | 259 W/m² | - |
| 1778180137 | 17.22° C | 39% | 1008.5 hPa | 0 mm | - | 845 W/m² | - |
| 1778179834 | 16.67° C | 39% | 1008.6 hPa | 0 mm | - | 662 W/m² | - |
| 1778179532 | 16.67° C | 38% | 1008.8 hPa | 0 mm | - | 656 W/m² | - |
| 1778179230 | 17.78° C | 40% | 1008.6 hPa | 0 mm | - | 199 W/m² | - |
| 1778178925 | 17.22° C | 39% | 1008.6 hPa | 0 mm | - | 818 W/m² | - |
| 1778178623 | 16.67° C | 41% | 1008.8 hPa | 0 mm | - | 796 W/m² | - |
| 1778178319 | 16.11° C | 40% | 1008.7 hPa | 0 mm | - | 203 W/m² | - |
| 1778178015 | 15.56° C | 40% | 1008.8 hPa | 0 mm | - | 219 W/m² | - |
| 1778177712 | 15.56° C | 41% | 1008.9 hPa | 0 mm | - | 177 W/m² | - |
| 1778177408 | 15.56° C | 43% | 1009.1 hPa | 0 mm | - | 218 W/m² | - |
| 1778177104 | 15° C | 44% | 1009 hPa | 0 mm | - | 577 W/m² | - |
| 1778176801 | 15.56° C | 41% | 1009.2 hPa | 0 mm | - | 171 W/m² | - |
| 1778176498 | 15° C | 45% | 1009.2 hPa | 0 mm | - | 209 W/m² | - |
| 1778176195 | 15° C | 44% | 1009.3 hPa | 0 mm | - | 192 W/m² | - |
| 1778175892 | 15° C | 49% | 1009.3 hPa | 0 mm | - | 216 W/m² | - |
| 1778175589 | 14.44° C | 48% | 1009.4 hPa | 0 mm | - | 196 W/m² | - |
| 1778175287 | 14.44° C | 50% | 1009.3 hPa | 0 mm | - | 267 W/m² | - |
| 1778174984 | 15° C | 48% | 1009.3 hPa | 0 mm | - | 262 W/m² | - |
| 1778174680 | 14.44° C | 44% | 1009.8 hPa | 0 mm | - | 211 W/m² | - |
| 1778174376 | 15.56° C | 49% | 1009.7 hPa | 0 mm | - | 183 W/m² | - |
* Rain latest hour (hover to see other rain measurements)
** Current wind speed in m/s (hover to see current wind gust speed)